createdAt,value
2022-12-31T00:01:26.737Z,97176.09
2022-12-31T00:03:54.276Z,97177.59
2022-12-31T00:06:23.705Z,97193.19
2022-12-31T00:08:51.665Z,97195.97
2022-12-31T00:11:19.103Z,97193.41
2022-12-31T00:13:49.562Z,97212.84
2022-12-31T00:16:19.349Z,97223.25
2022-12-31T00:18:47.895Z,97240.44
2022-12-31T00:21:15.749Z,97251.97
2022-12-31T00:23:43.417Z,97259.00
2022-12-31T00:26:15.212Z,97261.69
2022-12-31T00:28:42.603Z,97275.38
2022-12-31T00:31:17.003Z,97271.06
2022-12-31T00:33:44.527Z,97275.75
2022-12-31T00:36:13.808Z,97285.41
2022-12-31T00:38:42.276Z,97282.16
2022-12-31T00:41:09.937Z,97295.44
2022-12-31T00:43:37.237Z,97298.31
2022-12-31T00:46:05.545Z,97298.91
2022-12-31T00:48:33.208Z,97310.34
2022-12-31T00:51:01.330Z,97317.13
2022-12-31T00:53:29.074Z,97316.84
2022-12-31T00:56:13.079Z,97325.03
2022-12-31T00:58:40.368Z,97321.63
2022-12-31T01:01:10.517Z,97317.72
2022-12-31T01:03:38.006Z,97324.88
2022-12-31T01:06:06.035Z,97316.56
2022-12-31T01:08:33.350Z,97321.06
2022-12-31T01:11:19.308Z,97320.84
2022-12-31T01:13:47.449Z,97322.22
2022-12-31T01:16:14.981Z,97323.63
2022-12-31T01:18:42.388Z,97322.00
2022-12-31T01:21:10.845Z,97329.75
2022-12-31T01:23:38.147Z,97329.31
2022-12-31T01:26:07.379Z,97341.53
2022-12-31T01:28:34.724Z,97330.25
2022-12-31T01:31:09.849Z,97334.31
2022-12-31T01:33:37.638Z,97326.91
2022-12-31T01:36:06.187Z,97343.00
2022-12-31T01:38:34.029Z,97337.44
2022-12-31T01:41:01.369Z,97354.41
2022-12-31T01:43:45.693Z,97348.31
2022-12-31T01:46:14.370Z,97362.38
2022-12-31T01:48:41.875Z,97363.44
2022-12-31T01:51:09.782Z,97362.69
2022-12-31T01:53:40.691Z,97368.22
2022-12-31T01:56:08.460Z,97358.47
2022-12-31T01:58:41.399Z,97357.66
2022-12-31T02:01:10.247Z,97357.09
2022-12-31T02:03:37.516Z,97363.06
2022-12-31T02:06:15.759Z,97358.34
2022-12-31T02:08:43.882Z,97349.59
2022-12-31T02:11:23.077Z,97354.31
2022-12-31T02:13:56.540Z,97358.09
2022-12-31T02:16:25.480Z,97354.78
2022-12-31T02:18:58.630Z,97362.13
2022-12-31T02:22:04.531Z,97356.41
2022-12-31T02:24:32.283Z,97361.44
2022-12-31T02:27:07.141Z,97354.16
2022-12-31T02:29:53.279Z,97353.94
2022-12-31T02:32:20.548Z,97358.03
2022-12-31T02:34:50.889Z,97350.47
2022-12-31T02:37:20.739Z,97349.50
2022-12-31T02:39:48.295Z,97355.31
2022-12-31T02:42:15.528Z,97348.09
2022-12-31T02:44:42.902Z,97343.19
2022-12-31T02:47:10.183Z,97342.03
2022-12-31T02:49:55.922Z,97350.94
2022-12-31T02:52:23.245Z,97353.06
2022-12-31T02:54:50.453Z,97354.25
2022-12-31T02:57:27.249Z,97349.22
2022-12-31T03:00:26.649Z,97362.16
2022-12-31T03:02:55.109Z,97358.53
2022-12-31T03:05:27.241Z,97358.34
2022-12-31T03:07:54.729Z,97340.56
2022-12-31T03:10:21.928Z,97337.72
2022-12-31T03:12:49.364Z,97341.72
2022-12-31T03:15:23.576Z,97347.91
2022-12-31T03:17:50.756Z,97348.97
2022-12-31T03:20:36.597Z,97350.16
2022-12-31T03:23:05.470Z,97362.53
2022-12-31T03:25:35.816Z,97353.44
2022-12-31T03:28:04.282Z,97356.38
2022-12-31T03:30:32.097Z,97351.34
2022-12-31T03:33:00.114Z,97357.75
2022-12-31T03:35:28.313Z,97344.31
2022-12-31T03:37:56.672Z,97351.09
2022-12-31T03:40:24.791Z,97353.88
2022-12-31T03:42:52.182Z,97348.47
2022-12-31T03:45:19.435Z,97348.53
2022-12-31T03:47:47.762Z,97355.63
2022-12-31T03:50:16.198Z,97358.09
2022-12-31T03:52:43.524Z,97353.31
2022-12-31T03:55:11.115Z,97336.81
2022-12-31T03:57:38.820Z,97341.41
2022-12-31T04:00:07.745Z,97342.03
2022-12-31T04:02:35.151Z,97347.47
2022-12-31T04:05:02.459Z,97344.63
2022-12-31T04:07:30.105Z,97343.75
2022-12-31T04:09:57.573Z,97341.91
2022-12-31T04:12:24.799Z,97345.59
2022-12-31T04:14:51.951Z,97348.03
2022-12-31T04:17:19.313Z,97341.66
2022-12-31T04:19:46.630Z,97343.03
2022-12-31T04:22:13.972Z,97351.19
2022-12-31T04:24:42.242Z,97351.19
2022-12-31T04:27:10.589Z,97343.75
2022-12-31T04:29:37.825Z,97355.25
2022-12-31T04:32:05.705Z,97348.28
2022-12-31T04:34:33.055Z,97347.25
2022-12-31T04:37:00.750Z,97341.66
2022-12-31T04:39:28.137Z,97342.13
2022-12-31T04:41:55.553Z,97345.59
2022-12-31T04:44:22.768Z,97349.34
2022-12-31T04:46:50.086Z,97346.34
2022-12-31T04:49:17.365Z,97341.81
2022-12-31T04:51:44.708Z,97329.59
2022-12-31T04:54:11.891Z,97331.72
2022-12-31T04:56:39.247Z,97331.25
2022-12-31T04:59:07.463Z,97341.16
2022-12-31T05:01:36.861Z,97340.47
2022-12-31T05:04:04.216Z,97335.13
2022-12-31T05:06:31.473Z,97326.84
2022-12-31T05:08:59.152Z,97334.16
2022-12-31T05:11:27.849Z,97335.84
2022-12-31T05:13:55.035Z,97339.94
2022-12-31T05:16:22.359Z,97334.69
2022-12-31T05:18:49.606Z,97334.19
2022-12-31T05:21:19.783Z,97325.13
2022-12-31T05:23:47.214Z,97321.16
2022-12-31T05:30:08.990Z,97318.59
2022-12-31T05:32:36.269Z,97316.06
2022-12-31T05:35:03.944Z,97317.94
2022-12-31T05:37:31.487Z,97326.75
2022-12-31T05:39:58.832Z,97321.16
2022-12-31T05:42:26.651Z,97343.25
2022-12-31T05:44:54.042Z,97337.84
2022-12-31T05:47:21.751Z,97348.22
2022-12-31T05:49:49.039Z,97354.09
2022-12-31T05:52:16.382Z,97350.28
2022-12-31T05:54:43.643Z,97350.28
2022-12-31T05:57:10.908Z,97339.63
2022-12-31T05:59:38.132Z,97357.50
2022-12-31T06:02:05.425Z,97358.78
2022-12-31T06:04:34.247Z,97351.13
2022-12-31T06:07:01.509Z,97364.38
2022-12-31T06:09:28.719Z,97363.16
2022-12-31T06:11:56.013Z,97381.81
2022-12-31T06:14:23.277Z,97394.50
2022-12-31T06:16:50.638Z,97385.13
2022-12-31T06:19:17.810Z,97383.00
2022-12-31T06:21:45.166Z,97390.88
2022-12-31T06:24:12.458Z,97385.22
2022-12-31T06:26:39.735Z,97392.09
2022-12-31T06:29:06.963Z,97377.88
2022-12-31T06:31:34.349Z,97367.84
2022-12-31T06:34:01.574Z,97367.06
2022-12-31T06:36:29.322Z,97373.38
2022-12-31T06:41:33.315Z,97377.34
2022-12-31T06:44:00.963Z,97377.00
2022-12-31T06:46:28.483Z,97377.31
2022-12-31T06:48:56.044Z,97377.56
2022-12-31T06:51:23.944Z,97365.91
2022-12-31T06:53:52.132Z,97365.38
2022-12-31T06:56:34.441Z,97370.00
2022-12-31T06:59:03.976Z,97360.72
2022-12-31T07:01:49.125Z,97381.00
2022-12-31T07:04:34.813Z,97374.66
2022-12-31T07:07:23.004Z,97392.34
2022-12-31T07:09:51.362Z,97388.63
2022-12-31T07:12:34.053Z,97400.53
2022-12-31T07:15:06.481Z,97394.16
2022-12-31T07:17:56.012Z,97403.03
2022-12-31T07:20:23.890Z,97383.84
2022-12-31T07:22:51.670Z,97405.00
2022-12-31T07:25:19.676Z,97406.88
2022-12-31T07:27:56.320Z,97412.81
2022-12-31T07:30:51.208Z,97401.84
2022-12-31T07:33:37.604Z,97399.19
2022-12-31T07:36:26.374Z,97399.81
2022-12-31T07:39:02.141Z,97389.16
2022-12-31T07:42:10.713Z,97400.47
2022-12-31T07:44:49.336Z,97393.28
2022-12-31T07:47:25.833Z,97394.13
2022-12-31T07:49:53.742Z,97393.91
2022-12-31T07:52:22.273Z,97416.97
2022-12-31T07:54:50.055Z,97411.91
2022-12-31T07:57:19.696Z,97411.38
2022-12-31T08:00:05.158Z,97402.84
2022-12-31T08:02:56.752Z,97407.22
2022-12-31T08:05:50.584Z,97399.50
2022-12-31T08:08:39.509Z,97404.88
2022-12-31T08:11:12.115Z,97395.78
2022-12-31T08:13:42.705Z,97411.88
2022-12-31T08:16:13.908Z,97425.56
2022-12-31T08:18:41.868Z,97421.56
2022-12-31T08:21:46.102Z,97424.00
2022-12-31T08:24:30.897Z,97426.16
2022-12-31T08:27:12.621Z,97429.38
2022-12-31T08:29:58.309Z,97424.28
2022-12-31T08:32:40.229Z,97427.56
2022-12-31T08:35:40.973Z,97425.13
2022-12-31T08:38:45.934Z,97421.44
2022-12-31T08:41:42.462Z,97439.16
2022-12-31T08:44:28.579Z,97442.94
2022-12-31T08:47:26.478Z,97456.38
2022-12-31T08:49:55.599Z,97432.22
2022-12-31T08:52:26.061Z,97457.47
2022-12-31T08:54:54.332Z,97455.03
2022-12-31T08:57:46.602Z,97459.63
2022-12-31T09:00:17.224Z,97465.25
2022-12-31T09:03:17.444Z,97464.97
2022-12-31T09:06:03.335Z,97464.97
2022-12-31T09:08:37.692Z,97476.25
2022-12-31T09:11:29.301Z,97477.63
2022-12-31T09:14:21.534Z,97466.88
2022-12-31T09:16:59.846Z,97486.75
2022-12-31T09:19:28.213Z,97483.25
2022-12-31T09:21:56.086Z,97477.09
2022-12-31T09:24:23.789Z,97484.34
2022-12-31T09:27:09.352Z,97495.66
2022-12-31T09:29:48.708Z,97483.00
2022-12-31T09:32:38.396Z,97491.88
2022-12-31T09:35:12.002Z,97497.28
2022-12-31T09:37:51.507Z,97508.00
2022-12-31T09:40:21.701Z,97513.91
2022-12-31T09:43:32.373Z,97508.00
2022-12-31T09:46:12.074Z,97506.63
2022-12-31T09:48:48.384Z,97508.78
2022-12-31T09:51:40.506Z,97511.47
2022-12-31T09:54:30.369Z,97514.69
2022-12-31T09:57:13.320Z,97517.94
2022-12-31T10:00:23.951Z,97516.06
2022-12-31T10:03:23.335Z,97504.78
2022-12-31T10:06:05.091Z,97505.59
2022-12-31T10:08:44.561Z,97484.13
2022-12-31T10:11:27.396Z,97484.94
2022-12-31T10:14:25.928Z,97470.69
2022-12-31T10:17:20.787Z,97483.56
2022-12-31T10:20:22.286Z,97472.03
2022-12-31T10:22:50.630Z,97484.13
2022-12-31T10:25:39.542Z,97491.63
2022-12-31T10:28:44.784Z,97499.69
2022-12-31T10:31:17.010Z,97490.81
2022-12-31T10:33:53.532Z,97492.44
2022-12-31T10:36:31.856Z,97490.28
2022-12-31T10:39:17.669Z,97506.41
2022-12-31T10:42:21.757Z,97498.88
2022-12-31T10:45:13.574Z,97503.75
2022-12-31T10:47:53.413Z,97494.84
2022-12-31T10:50:20.964Z,97497.81
2022-12-31T10:53:27.602Z,97508.56
2022-12-31T10:56:19.620Z,97484.38
2022-12-31T10:59:11.678Z,97499.97
2022-12-31T11:01:50.541Z,97483.28
2022-12-31T11:04:37.584Z,97488.13
2022-12-31T11:07:26.947Z,97491.34
2022-12-31T11:10:28.226Z,97478.44
2022-12-31T11:13:04.412Z,97490.00
2022-12-31T11:15:53.354Z,97475.50
2022-12-31T11:18:34.519Z,97476.31
2022-12-31T11:21:13.838Z,97476.03
2022-12-31T11:24:17.666Z,97472.78
2022-12-31T11:27:09.363Z,97466.34
2022-12-31T11:30:11.634Z,97476.81
2022-12-31T11:32:54.864Z,97470.94
2022-12-31T11:35:45.378Z,97477.63
2022-12-31T11:38:18.514Z,97478.47
2022-12-31T11:41:19.567Z,97467.41
2022-12-31T11:44:11.021Z,97474.69
2022-12-31T11:46:56.250Z,97463.09
2022-12-31T11:50:00.903Z,97459.59
2022-12-31T11:52:55.855Z,97473.03
2022-12-31T11:55:45.763Z,97474.09
2022-12-31T11:58:19.449Z,97482.16
2022-12-31T12:00:54.138Z,97458.75
2022-12-31T12:03:23.283Z,97473.03
2022-12-31T12:05:51.193Z,97466.03
2022-12-31T12:08:19.177Z,97478.66
2022-12-31T12:10:49.204Z,97474.63
2022-12-31T12:13:19.576Z,97474.63
2022-12-31T12:15:51.066Z,97482.44
2022-12-31T12:18:41.168Z,97486.50
2022-12-31T12:21:12.966Z,97479.75
2022-12-31T12:23:42.785Z,97476.53
2022-12-31T12:26:41.698Z,97475.16
2022-12-31T12:29:20.915Z,97488.59
2022-12-31T12:31:59.098Z,97488.53
2022-12-31T12:34:44.556Z,97495.81
2022-12-31T12:37:37.161Z,97501.94
2022-12-31T12:40:18.099Z,97516.19
2022-12-31T12:42:50.201Z,97511.03
2022-12-31T12:45:21.901Z,97511.00
2022-12-31T12:47:55.765Z,97519.91
2022-12-31T12:50:26.272Z,97510.78
2022-12-31T12:53:15.211Z,97521.56
2022-12-31T12:56:04.096Z,97522.09
2022-12-31T12:58:43.678Z,97521.00
2022-12-31T13:01:34.998Z,97518.06
2022-12-31T13:04:37.917Z,97516.47
2022-12-31T13:07:24.565Z,97508.97
2022-12-31T13:10:03.841Z,97496.59
2022-12-31T13:15:47.619Z,97499.84
2022-12-31T13:18:38.276Z,97495.81
2022-12-31T13:21:36.099Z,97495.53
2022-12-31T13:24:18.864Z,97509.00
2022-12-31T13:27:01.031Z,97492.56
2022-12-31T13:29:33.362Z,97502.28
2022-12-31T13:32:04.906Z,97525.97
2022-12-31T13:34:39.736Z,97522.47
2022-12-31T13:37:37.758Z,97515.75
2022-12-31T13:40:30.691Z,97524.09
2022-12-31T13:43:03.290Z,97534.59
2022-12-31T13:45:44.472Z,97520.63
2022-12-31T13:48:23.382Z,97534.91
2022-12-31T13:51:04.759Z,97531.38
2022-12-31T13:53:42.780Z,97542.69
2022-12-31T13:56:16.860Z,97526.03
2022-12-31T13:58:54.502Z,97522.00
2022-12-31T14:01:41.224Z,97526.31
2022-12-31T14:04:18.519Z,97520.66
2022-12-31T14:07:00.970Z,97538.69
2022-12-31T14:09:33.626Z,97536.53
2022-12-31T14:12:10.103Z,97553.22
2022-12-31T14:15:01.892Z,97567.72
2022-12-31T14:17:41.486Z,97572.06
2022-12-31T14:20:29.239Z,97555.59
2022-12-31T14:23:26.670Z,97568.53
2022-12-31T14:26:04.696Z,97547.25
2022-12-31T14:28:56.170Z,97546.72
2022-12-31T14:31:48.670Z,97545.66
2022-12-31T14:34:19.026Z,97535.97
2022-12-31T14:37:13.343Z,97544.03
2022-12-31T14:39:46.662Z,97539.75
2022-12-31T14:42:42.104Z,97558.28
2022-12-31T14:45:50.861Z,97566.88
2022-12-31T14:48:36.310Z,97583.81
2022-12-31T14:51:05.029Z,97585.19
2022-12-31T14:53:32.727Z,97586.78
2022-12-31T14:56:05.830Z,97588.13
2022-12-31T14:58:35.440Z,97587.03
2022-12-31T15:01:19.408Z,97589.75
2022-12-31T15:03:47.014Z,97598.88
2022-12-31T15:06:23.262Z,97599.94
2022-12-31T15:09:15.688Z,97603.16
2022-12-31T15:11:46.420Z,97600.75
2022-12-31T15:14:16.807Z,97612.59
2022-12-31T15:17:09.206Z,97637.03
2022-12-31T15:19:52.883Z,97632.16
2022-12-31T15:22:58.837Z,97630.00
2022-12-31T15:25:40.726Z,97622.72
2022-12-31T15:28:45.160Z,97635.13
2022-12-31T15:31:20.080Z,97634.28
2022-12-31T15:34:23.735Z,97636.69
2022-12-31T15:36:57.524Z,97632.41
2022-12-31T15:39:38.677Z,97640.19
2022-12-31T15:42:38.715Z,97629.44
2022-12-31T15:45:17.421Z,97628.38
2022-12-31T15:47:48.741Z,97627.28
2022-12-31T15:50:20.729Z,97628.38
2022-12-31T15:52:57.957Z,97631.59
2022-12-31T15:55:27.538Z,97631.88
2022-12-31T15:58:11.972Z,97622.19
2022-12-31T16:01:20.407Z,97631.31
2022-12-31T16:04:01.737Z,97626.22
2022-12-31T16:06:31.758Z,97628.91
2022-12-31T16:08:59.690Z,97626.75
2022-12-31T16:11:30.549Z,97621.63
2022-12-31T16:13:59.539Z,97628.63
2022-12-31T16:16:31.966Z,97622.44
2022-12-31T16:19:00.811Z,97620.81
2022-12-31T16:21:35.352Z,97625.66
2022-12-31T16:24:27.854Z,97618.94
2022-12-31T16:27:00.028Z,97635.28
2022-12-31T16:29:27.857Z,97636.09
2022-12-31T16:31:55.554Z,97633.94
2022-12-31T16:34:26.160Z,97642.28
2022-12-31T16:36:59.511Z,97638.22
2022-12-31T16:39:30.310Z,97640.94
2022-12-31T16:42:19.028Z,97642.81
2022-12-31T16:44:47.895Z,97648.47
2022-12-31T16:47:18.449Z,97649.53
2022-12-31T16:50:00.147Z,97645.50
2022-12-31T16:52:32.519Z,97648.72
2022-12-31T16:55:00.470Z,97644.44
2022-12-31T16:57:31.151Z,97641.19
2022-12-31T17:00:03.180Z,97643.63
2022-12-31T17:02:38.173Z,97638.25
2022-12-31T17:05:19.021Z,97635.88
2022-12-31T17:07:46.642Z,97638.56
2022-12-31T17:10:16.740Z,97634.00
2022-12-31T17:15:42.524Z,97644.47
2022-12-31T17:18:20.886Z,97649.59
2022-12-31T17:20:53.630Z,97653.63
2022-12-31T17:23:31.569Z,97660.03
2022-12-31T17:26:01.346Z,97665.94
2022-12-31T17:28:51.045Z,97668.06
2022-12-31T17:31:35.285Z,97674.00
2022-12-31T17:34:14.887Z,97679.91
2022-12-31T17:36:53.059Z,97675.84
2022-12-31T17:39:22.974Z,97666.72
2022-12-31T17:41:52.851Z,97677.22
2022-12-31T17:44:22.989Z,97682.06
2022-12-31T17:46:50.728Z,97678.84
2022-12-31T17:49:22.019Z,97688.25
2022-12-31T17:51:49.540Z,97690.09
2022-12-31T17:54:18.544Z,97690.06
2022-12-31T17:56:46.580Z,97692.41
2022-12-31T17:59:25.888Z,97685.38
2022-12-31T18:01:53.714Z,97695.78
2022-12-31T18:04:21.520Z,97686.34
2022-12-31T18:06:49.045Z,97685.94
2022-12-31T18:09:16.527Z,97698.78
2022-12-31T18:11:45.322Z,97694.97
2022-12-31T18:14:16.093Z,97709.41
2022-12-31T18:16:43.683Z,97690.56
2022-12-31T18:19:37.844Z,97698.56
2022-12-31T18:22:03.385Z,97711.91
2022-12-31T18:24:30.807Z,97704.31
2022-12-31T18:26:58.329Z,97690.03
2022-12-31T18:29:25.879Z,97706.56
2022-12-31T18:31:54.086Z,97696.59
2022-12-31T18:34:21.668Z,97701.34
2022-12-31T18:36:49.169Z,97692.50
2022-12-31T18:39:16.680Z,97692.69
2022-12-31T18:41:51.087Z,97687.84
2022-12-31T18:44:18.688Z,97688.34
2022-12-31T18:46:46.180Z,97693.69
2022-12-31T18:49:13.702Z,97701.06
2022-12-31T18:51:41.152Z,97702.63
2022-12-31T18:54:12.079Z,97690.72
2022-12-31T18:56:44.816Z,97685.22
2022-12-31T18:59:14.753Z,97682.06
2022-12-31T19:01:42.377Z,97678.38
2022-12-31T19:04:27.000Z,97678.94
2022-12-31T19:06:56.699Z,97674.66
2022-12-31T19:09:44.577Z,97670.53
2022-12-31T19:12:13.249Z,97682.97
2022-12-31T19:14:40.762Z,97683.47
2022-12-31T19:19:37.328Z,97681.31
2022-12-31T19:22:04.925Z,97685.00
2022-12-31T19:24:32.444Z,97681.38
2022-12-31T19:27:00.957Z,97675.75
2022-12-31T19:29:28.957Z,97676.13
2022-12-31T19:31:58.259Z,97675.00
2022-12-31T19:34:25.876Z,97675.22
2022-12-31T19:36:53.338Z,97670.72
2022-12-31T19:39:21.763Z,97677.22
2022-12-31T19:41:56.643Z,97659.19
2022-12-31T19:44:26.611Z,97670.06
2022-12-31T19:46:54.189Z,97665.81
2022-12-31T19:49:21.827Z,97666.91
2022-12-31T19:51:49.288Z,97654.03
2022-12-31T19:54:16.830Z,97658.34
2022-12-31T19:56:44.291Z,97655.94
2022-12-31T19:59:12.000Z,97644.16
2022-12-31T20:01:39.555Z,97652.50
2022-12-31T20:04:07.397Z,97647.72
2022-12-31T20:06:34.908Z,97645.59
2022-12-31T20:09:03.246Z,97645.84
2022-12-31T20:11:30.830Z,97634.31
2022-12-31T20:13:58.457Z,97642.38
2022-12-31T20:16:31.829Z,97651.25
2022-12-31T20:18:59.550Z,97624.38
2022-12-31T20:21:28.820Z,97644.56
2022-12-31T20:23:57.736Z,97654.50
2022-12-31T20:26:26.137Z,97644.56
2022-12-31T20:28:53.787Z,97641.88
2022-12-31T20:31:24.687Z,97649.69
2022-12-31T20:33:54.404Z,97651.88
2022-12-31T20:36:22.625Z,97651.34
2022-12-31T20:38:50.612Z,97637.66
2022-12-31T20:41:20.440Z,97643.03
2022-12-31T20:43:48.360Z,97641.94
2022-12-31T20:46:22.160Z,97658.09
2022-12-31T20:48:50.386Z,97650.28
2022-12-31T20:51:18.717Z,97654.59
2022-12-31T20:53:57.637Z,97658.56
2022-12-31T20:56:28.219Z,97669.34
2022-12-31T20:58:56.235Z,97677.91
2022-12-31T21:01:25.260Z,97663.91
2022-12-31T21:04:09.401Z,97661.50
2022-12-31T21:06:36.961Z,97674.41
2022-12-31T21:09:09.488Z,97671.69
2022-12-31T21:11:55.710Z,97680.31
2022-12-31T21:14:23.336Z,97669.31
2022-12-31T21:16:51.099Z,97682.19
2022-12-31T21:19:18.679Z,97673.28
2022-12-31T21:21:48.257Z,97665.75
2022-12-31T21:24:21.785Z,97657.44
2022-12-31T21:26:54.579Z,97659.06
2022-12-31T21:29:22.286Z,97647.75
2022-12-31T21:31:50.039Z,97654.75
2022-12-31T21:34:17.789Z,97648.31
2022-12-31T21:36:45.232Z,97645.38
2022-12-31T21:39:12.789Z,97655.56
2022-12-31T21:41:52.403Z,97653.69
2022-12-31T21:44:22.661Z,97645.09
2022-12-31T21:47:38.611Z,97640.56
2022-12-31T21:50:08.335Z,97631.13
2022-12-31T21:52:35.780Z,97630.59
2022-12-31T21:55:23.859Z,97623.59
2022-12-31T21:58:24.786Z,97640.25
2022-12-31T22:00:59.129Z,97629.53
2022-12-31T22:03:29.477Z,97649.94
2022-12-31T22:06:12.628Z,97647.00
2022-12-31T22:08:42.507Z,97643.22
2022-12-31T22:11:11.267Z,97655.63
2022-12-31T22:13:39.558Z,97656.94
2022-12-31T22:16:07.863Z,97675.22
2022-12-31T22:18:39.024Z,97672.22
2022-12-31T22:21:27.797Z,97681.66
2022-12-31T22:23:56.827Z,97681.69
2022-12-31T22:26:26.661Z,97699.94
2022-12-31T22:28:59.403Z,97697.75
2022-12-31T22:31:32.369Z,97708.81
2022-12-31T22:34:00.141Z,97699.13
2022-12-31T22:36:27.676Z,97691.88
2022-12-31T22:38:58.245Z,97708.56
2022-12-31T22:41:27.444Z,97707.00
2022-12-31T22:44:03.055Z,97701.63
2022-12-31T22:46:32.464Z,97698.16
2022-12-31T22:49:01.246Z,97719.13
2022-12-31T22:51:56.669Z,97718.31
2022-12-31T22:54:17.725Z,97725.56
2022-12-31T22:56:45.241Z,97722.63
2022-12-31T22:59:12.755Z,97738.75
2022-12-31T23:01:40.998Z,97727.47
2022-12-31T23:04:08.739Z,97737.91
2022-12-31T23:06:54.561Z,97743.06
2022-12-31T23:09:40.801Z,97745.50
2022-12-31T23:12:09.750Z,97743.63
2022-12-31T23:14:56.491Z,97753.56
2022-12-31T23:17:44.895Z,97766.75
2022-12-31T23:20:37.515Z,97763.00
2022-12-31T23:23:10.671Z,97768.91
2022-12-31T23:26:01.261Z,97764.84
2022-12-31T23:28:28.805Z,97776.66
2022-12-31T23:30:56.380Z,97770.75
2022-12-31T23:33:26.075Z,97782.84
2022-12-31T23:36:07.146Z,97782.84
2022-12-31T23:38:35.007Z,97779.88
2022-12-31T23:41:12.536Z,97784.72
2022-12-31T23:43:40.147Z,97778.25
2022-12-31T23:46:07.731Z,97779.06
2022-12-31T23:48:35.337Z,97774.78
2022-12-31T23:51:02.845Z,97777.50
2022-12-31T23:53:30.406Z,97791.72
2022-12-31T23:56:13.871Z,97789.84
2022-12-31T23:58:44.118Z,97789.84
